Time;durP1;ratioP1;P1;durP2;ratioP2;P2;SDS_P1;SDS_P2;PMS_P1;PMS_P2;Temp;Humidity;BMP_temperature;BMP_pressure;BME280_temperature;BME280_humidity;BME280_pressure;Samples;Min_cycle;Max_cycle;Signal;HPM_P1;HPM_P2
2021/04/12 00:00:03;;;;;;;5.30;4.50;;;;;;;18.91;37.56;95050.53;5032365;27;99637;-73
2021/04/12 00:02:44;;;;;;;5.47;4.55;;;;;;;18.92;38.40;95041.16;5032012;28;96763;-69
2021/04/12 00:05:25;;;;;;;6.80;4.63;;;;;;;18.96;38.22;95039.25;5031640;28;96757;-71
2021/04/12 00:08:14;;;;;;;7.18;4.35;;;;;;;18.92;37.88;95038.41;5032340;27;99561;-71
2021/04/12 00:10:59;;;;;;;6.75;4.07;;;;;;;18.87;38.87;95036.03;5030785;28;99558;-63
2021/04/12 00:13:33;;;;;;;6.72;5.60;;;;;;;18.95;39.63;95039.59;5031606;28;96664;-63
2021/04/12 00:16:24;;;;;;;5.80;4.47;;;;;;;18.94;39.41;95033.34;5031479;28;96798;-65
2021/04/12 00:18:51;;;;;;;8.50;5.15;;;;;;;18.92;40.99;95032.94;5001751;28;99190;-65
2021/04/12 00:21:19;;;;;;;8.95;5.00;;;;;;;18.96;41.77;95042.00;5031843;28;99575;-64
2021/04/12 00:23:48;;;;;;;10.05;4.80;;;;;;;19.06;46.17;95034.25;5031862;27;96771;-63
2021/04/12 00:26:27;;;;;;;11.27;9.60;;;;;;;18.98;40.93;95038.88;5031190;28;96998;-63
2021/04/12 00:29:02;;;;;;;9.85;6.88;;;;;;;18.90;44.60;95043.50;5030894;28;99392;-62
2021/04/12 00:31:35;;;;;;;8.85;6.10;;;;;;;18.89;43.51;95050.13;5030536;28;99024;-62
2021/04/12 00:34:09;;;;;;;9.80;6.60;;;;;;;18.86;45.21;95042.66;5014659;28;96704;-63
2021/04/12 00:37:02;;;;;;;9.82;6.63;;;;;;;18.86;45.90;95037.19;5015064;28;96830;-62
2021/04/12 00:39:52;;;;;;;9.13;5.88;;;;;;;18.87;46.80;95044.25;5031599;27;99780;-63
2021/04/12 00:42:38;;;;;;;7.97;5.88;;;;;;;18.86;47.04;95037.19;5029944;28;99362;-63
2021/04/12 00:45:32;;;;;;;9.52;6.78;;;;;;;18.86;47.22;95039.94;5032188;27;96688;-63
2021/04/12 00:48:22;;;;;;;6.78;5.75;;;;;;;18.85;47.38;95034.81;5030588;28;96960;-64
2021/04/12 00:51:03;;;;;;;7.13;5.32;;;;;;;18.95;47.64;95040.41;5029938;28;99664;-62
2021/04/12 00:53:53;;;;;;;8.70;5.50;;;;;;;19.08;48.50;95040.13;5029929;28;99201;-62
2021/04/12 00:56:29;;;;;;;6.00;4.07;;;;;;;19.17;49.89;95040.56;5030773;28;97395;-62
2021/04/12 00:59:06;;;;;;;4.18;3.30;;;;;;;19.20;49.79;95033.56;5014112;28;96992;-62
2021/04/12 01:01:38;;;;;;;2.78;2.40;;;;;;;19.23;49.75;95044.53;5025274;27;99581;-62
2021/04/12 01:04:32;;;;;;;2.20;1.83;;;;;;;19.25;49.82;95053.16;5016751;28;99140;-62
2021/04/12 01:07:22;;;;;;;1.55;1.45;;;;;;;19.28;49.96;95056.28;5018140;28;96934;-62
2021/04/12 01:10:11;;;;;;;1.40;1.30;;;;;;;19.30;49.80;95059.44;5017934;28;96789;-62
2021/04/12 01:13:07;;;;;;;1.17;1.17;;;;;;;19.32;49.74;95052.44;5016606;28;99725;-62
2021/04/12 01:15:52;;;;;;;0.80;0.80;;;;;;;19.33;49.46;95058.69;5017686;28;99637;-62
2021/04/12 01:18:53;;;;;;;0.60;0.60;;;;;;;19.37;49.33;95032.09;5018339;28;96791;-62
2021/04/12 01:21:46;;;;;;;0.50;0.50;;;;;;;19.36;49.11;95020.38;5005572;28;96892;-62
2021/04/12 01:24:47;;;;;;;0.52;0.52;;;;;;;19.38;48.66;95017.25;5017476;28;99229;-62
2021/04/12 01:27:44;;;;;;;0.60;0.60;;;;;;;19.38;48.28;95018.03;5016366;28;99288;-62
2021/04/12 01:30:46;;;;;;;0.63;0.63;;;;;;;19.40;48.40;95021.19;5017964;28;96596;-62
2021/04/12 01:33:20;;;;;;;0.55;0.50;;;;;;;19.43;47.73;95030.56;5018034;28;96906;-62
2021/04/12 01:36:01;;;;;;;0.40;0.40;;;;;;;19.40;47.66;95048.56;5017184;28;100165;-63
2021/04/12 01:38:35;;;;;;;0.47;0.40;;;;;;;19.43;47.63;95024.31;5017605;28;99096;-62
2021/04/12 01:41:38;;;;;;;0.57;0.40;;;;;;;19.44;47.13;95026.66;5000296;28;96756;-62
2021/04/12 01:44:16;;;;;;;0.40;0.40;;;;;;;19.44;46.93;95021.19;5016806;28;96824;-62
2021/04/12 01:46:55;;;;;;;0.50;0.50;;;;;;;19.44;46.84;95026.66;5016075;28;100062;-62
2021/04/12 01:49:46;;;;;;;3.53;0.93;;;;;;;19.46;47.48;95046.25;5015393;28;99751;-64
2021/04/12 01:52:20;;;;;;;0.60;0.60;;;;;;;19.46;47.27;95046.25;4999602;28;96903;-66
2021/04/12 01:55:04;;;;;;;0.50;0.50;;;;;;;19.47;47.55;95047.03;4996647;28;96800;-66
2021/04/12 01:57:42;;;;;;;1.30;0.45;;;;;;;19.51;47.58;95047.84;4994662;28;99585;-69
2021/04/12 02:00:35;;;;;;;0.50;0.50;;;;;;;19.51;47.33;95054.09;4997023;28;99505;-67
2021/04/12 02:03:18;;;;;;;0.63;0.30;;;;;;;19.52;47.50;95044.72;4996003;28;96871;-69
2021/04/12 02:06:08;;;;;;;0.20;0.20;;;;;;;19.50;47.58;95047.06;4994992;28;96853;-67
2021/04/12 02:08:35;;;;;;;0.40;0.40;;;;;;;19.50;47.51;95046.25;4997289;28;99672;-67
2021/04/12 02:11:15;;;;;;;0.35;0.35;;;;;;;19.52;47.56;95041.97;4995774;28;100013;-67
2021/04/12 02:13:59;;;;;;;0.30;0.30;;;;;;;19.53;47.69;95048.22;4994422;28;96727;-67
2021/04/12 02:16:29;;;;;;;0.30;0.30;;;;;;;19.55;47.44;95049.44;4995050;28;96957;-70
2021/04/12 02:19:19;;;;;;;0.20;0.20;;;;;;;19.57;47.56;95045.53;4992682;28;99732;-69
2021/04/12 02:21:58;;;;;;;0.20;0.20;;;;;;;19.54;47.75;95052.53;4994355;28;99285;-68
2021/04/12 02:24:37;;;;;;;0.30;0.30;;;;;;;19.54;47.87;95047.06;4995036;28;97116;-67
2021/04/12 02:27:19;;;;;;;0.55;0.50;;;;;;;19.55;47.74;95038.47;4993553;28;96976;-69
2021/04/12 02:29:57;;;;;;;0.20;0.20;;;;;;;19.54;47.88;95036.09;4995819;28;97305;-68
2021/04/12 02:32:54;;;;;;;0.20;0.20;;;;;;;19.53;48.00;95031.78;4996722;28;99587;-66
2021/04/12 02:35:28;;;;;;;0.20;0.20;;;;;;;19.51;48.03;95026.72;4996053;28;96769;-69
2021/04/12 02:38:12;;;;;;;0.20;0.20;;;;;;;19.54;47.74;95020.47;4996341;28;96787;-68
2021/04/12 02:41:23;;;;;;;0.20;0.20;;;;;;;19.57;48.03;95023.63;4980535;28;99356;-67
2021/04/12 02:44:26;;;;;;;0.20;0.20;;;;;;;19.58;47.70;95025.19;4995415;28;99926;-68
2021/04/12 02:46:54;;;;;;;0.20;0.20;;;;;;;19.55;47.88;95022.03;4997355;28;96628;-68
2021/04/12 02:49:31;;;;;;;0.20;0.20;;;;;;;19.58;47.82;95019.69;4995346;28;97081;-68
2021/04/12 02:52:19;;;;;;;0.20;0.20;;;;;;;19.57;47.90;95023.63;4995881;28;99593;-67
2021/04/12 02:55:11;;;;;;;0.20;0.20;;;;;;;19.58;47.66;95020.47;4995294;28;99430;-68
2021/04/12 02:58:04;;;;;;;0.30;0.30;;;;;;;19.56;47.89;95011.84;4995866;28;96625;-67
2021/04/12 03:01:23;;;;;;;0.20;0.20;;;;;;;19.56;47.92;95017.34;4996034;28;96727;-68
2021/04/12 03:04:27;;;;;;;1.98;0.20;;;;;;;19.53;47.98;95018.91;4954454;28;99849;-66
2021/04/12 03:07:04;;;;;;;0.30;0.30;;;;;;;19.50;48.12;95008.72;4954468;28;99233;-67
2021/04/12 03:10:03;;;;;;;0.20;0.20;;;;;;;19.49;48.22;95015.34;4997009;28;96663;-66
2021/04/12 03:12:44;;;;;;;0.30;0.30;;;;;;;19.52;48.39;95011.03;4997040;28;96768;-66
2021/04/12 03:15:38;;;;;;;0.20;0.20;;;;;;;19.52;48.44;95014.59;4995888;28;99784;-66
2021/04/12 03:18:32;;;;;;;0.30;0.30;;;;;;;19.51;48.35;95015.75;4995154;28;99771;-67
2021/04/12 03:21:19;;;;;;;0.25;0.25;;;;;;;19.52;48.49;95020.06;4995438;28;96662;-66
2021/04/12 03:24:18;;;;;;;0.20;0.20;;;;;;;19.51;48.50;95015.75;4996541;28;96909;-65
2021/04/12 03:26:49;;;;;;;0.20;0.20;;;;;;;19.52;48.70;95013.78;4996084;28;99961;-65
2021/04/12 03:29:24;;;;;;;0.20;0.20;;;;;;;19.53;48.66;95018.91;4995846;28;99627;-65
2021/04/12 03:31:55;;;;;;;0.30;0.30;;;;;;;19.52;48.68;95011.84;4996378;28;97527;-65
2021/04/12 03:34:28;;;;;;;0.30;0.30;;;;;;;19.54;48.85;95012.25;4996432;28;96991;-65
2021/04/12 03:37:02;;;;;;;0.30;0.30;;;;;;;19.55;48.75;95022.03;4995766;28;99979;-64
2021/04/12 03:39:51;;;;;;;0.30;0.30;;;;;;;19.59;48.77;95015.78;4995657;28;99315;-63
2021/04/12 03:43:01;;;;;;;0.30;0.30;;;;;;;19.59;48.81;95021.28;4989163;28;96965;-64
2021/04/12 03:45:47;;;;;;;0.30;0.30;;;;;;;19.58;48.96;95015.00;4985337;28;96935;-64
2021/04/12 03:48:22;;;;;;;0.30;0.30;;;;;;;19.62;48.76;95023.25;4994318;28;99293;-66
2021/04/12 03:51:06;;;;;;;0.20;0.20;;;;;;;19.62;48.85;95017.78;4994084;28;99387;-67
2021/04/12 03:54:01;;;;;;;0.30;0.30;;;;;;;19.62;48.90;95015.03;4995436;28;96954;-67
2021/04/12 03:57:04;;;;;;;0.20;0.20;;;;;;;19.59;49.08;95015.78;4995800;28;96929;-67
2021/04/12 03:59:53;;;;;;;0.20;0.20;;;;;;;19.65;48.93;95015.03;4995427;28;99463;-66
2021/04/12 04:02:48;;;;;;;0.20;0.20;;;;;;;19.60;49.01;95012.66;4995556;28;99556;-66
2021/04/12 04:05:13;;;;;;;0.20;0.20;;;;;;;19.62;49.12;95010.31;4975635;28;96945;-70
2021/04/12 04:08:09;;;;;;;0.30;0.30;;;;;;;19.62;49.36;95009.53;4996062;28;96958;-70
2021/04/12 04:10:56;;;;;;;0.20;0.20;;;;;;;19.62;49.34;95009.53;4995400;28;99294;-66
2021/04/12 04:14:00;;;;;;;0.30;0.30;;;;;;;19.64;49.13;95007.22;4994196;28;99260;-66
2021/04/12 04:16:33;;;;;;;0.20;0.20;;;;;;;19.64;49.45;95007.22;4980564;28;96788;-67
2021/04/12 04:19:11;;;;;;;0.35;0.35;;;;;;;19.67;49.20;95000.97;4978895;28;96840;-65
2021/04/12 04:21:57;;;;;;;0.20;0.20;;;;;;;19.62;49.36;95002.09;4995404;28;99786;-63
2021/04/12 04:24:55;;;;;;;0.20;0.20;;;;;;;19.64;49.33;95012.69;4995339;28;99111;-67
2021/04/12 04:27:42;;;;;;;0.20;0.20;;;;;;;19.61;49.39;95013.47;4994364;28;96707;-67
2021/04/12 04:30:27;;;;;;;0.20;0.20;;;;;;;19.61;49.09;95008.75;4995215;28;96804;-64
2021/04/12 04:33:13;;;;;;;0.20;0.20;;;;;;;19.61;49.26;95007.97;4993195;28;99733;-63
2021/04/12 04:36:02;;;;;;;0.20;0.20;;;;;;;19.65;49.27;95011.53;4994286;28;99709;-66
2021/04/12 04:38:54;;;;;;;0.20;0.20;;;;;;;19.64;49.36;95007.22;4996645;28;96818;-65
2021/04/12 04:41:40;;;;;;;0.30;0.30;;;;;;;19.65;49.39;95008.78;4997084;28;96853;-67
2021/04/12 04:44:32;;;;;;;0.30;0.30;;;;;;;19.64;49.54;95013.47;4996585;28;99602;-67
2021/04/12 04:47:19;;;;;;;0.30;0.30;;;;;;;19.64;49.58;95001.72;4996441;28;99433;-65
2021/04/12 04:50:04;;;;;;;0.20;0.20;;;;;;;19.59;49.76;95010.31;4997753;28;96883;-66
2021/04/12 04:52:48;;;;;;;0.35;0.32;;;;;;;19.61;49.57;95013.47;4997047;28;97560;-64
2021/04/12 04:55:22;;;;;;;0.30;0.30;;;;;;;19.63;49.77;95008.38;4982220;28;99492;-66
2021/04/12 04:57:59;;;;;;;0.30;0.30;;;;;;;19.64;49.87;95012.69;4997947;28;98771;-65
2021/04/12 05:00:54;;;;;;;0.20;0.20;;;;;;;19.69;49.64;95009.59;4996808;28;96710;-65
2021/04/12 05:04:07;;;;;;;0.30;0.30;;;;;;;19.67;49.64;95011.94;4996716;28;96872;-65
2021/04/12 05:06:50;;;;;;;0.20;0.20;;;;;;;19.65;49.80;95008.78;4954765;28;99717;-65
2021/04/12 05:09:25;;;;;;;0.20;0.20;;;;;;;19.64;49.89;95012.69;4990775;28;99025;-66
2021/04/12 05:12:18;;;;;;;0.20;0.20;;;;;;;19.66;49.98;95021.31;4997594;28;96746;-65
2021/04/12 05:14:50;;;;;;;0.20;0.20;;;;;;;19.65;49.79;95028.72;4997796;28;96752;-65
2021/04/12 05:17:40;;;;;;;0.28;0.28;;;;;;;19.65;49.84;95017.00;4995861;28;99640;-65
2021/04/12 05:20:24;;;;;;;0.20;0.20;;;;;;;19.68;49.87;95016.25;4997222;28;99360;-65
2021/04/12 05:23:11;;;;;;;0.20;0.20;;;;;;;19.65;49.99;95017.00;4997606;28;96706;-65
2021/04/12 05:25:50;;;;;;;0.20;0.20;;;;;;;19.64;50.01;95012.69;4996892;28;97101;-64
2021/04/12 05:28:36;;;;;;;0.20;0.20;;;;;;;19.66;49.88;95021.31;4979980;28;99230;-66
2021/04/12 05:31:40;;;;;;;0.30;0.30;;;;;;;19.66;49.96;95015.84;4996943;28;98990;-65
2021/04/12 05:34:43;;;;;;;0.20;0.20;;;;;;;19.67;50.22;95007.22;4996772;28;96640;-67
2021/04/12 05:37:25;;;;;;;0.20;0.20;;;;;;;19.66;50.17;95004.88;4996309;28;96748;-69
2021/04/12 05:40:03;;;;;;;0.22;0.22;;;;;;;19.64;50.17;94996.25;4997008;28;100036;-66
2021/04/12 05:43:04;;;;;;;0.30;0.30;;;;;;;19.67;50.16;94990.00;4996773;28;99489;-63
2021/04/12 05:45:39;;;;;;;0.30;0.30;;;;;;;19.69;50.04;94996.66;4996025;28;96799;-64
2021/04/12 05:48:13;;;;;;;0.20;0.20;;;;;;;19.68;50.16;94991.56;4996781;28;96946;-65
2021/04/12 05:50:58;;;;;;;0.30;0.30;;;;;;;19.72;50.13;94997.84;4996390;28;99719;-67
2021/04/12 05:53:42;;;;;;;0.20;0.20;;;;;;;19.73;49.91;94999.41;4996858;28;99010;-66
2021/04/12 05:56:16;;;;;;;0.22;0.22;;;;;;;19.75;49.65;94990.81;4996844;28;97846;-66
2021/04/12 05:59:23;;;;;;;0.30;0.30;;;;;;;19.77;49.88;94999.44;4997217;28;96890;-66
2021/04/12 06:02:11;;;;;;;0.20;0.20;;;;;;;19.74;49.84;95000.97;4975794;28;99259;-66
2021/04/12 06:05:01;;;;;;;0.20;0.20;;;;;;;19.78;49.86;95012.72;4996354;28;97841;-65
2021/04/12 06:08:01;;;;;;;0.20;0.20;;;;;;;19.79;49.80;95008.06;4996880;28;96566;-65
2021/04/12 06:10:45;;;;;;;0.30;0.30;;;;;;;19.80;49.76;95004.91;4984523;28;98444;-66
2021/04/12 06:13:32;;;;;;;0.20;0.20;;;;;;;19.81;49.82;95017.44;4996384;28;99505;-67
2021/04/12 06:16:13;;;;;;;0.30;0.30;;;;;;;19.82;49.74;95008.06;4996471;28;100185;-65
2021/04/12 06:18:53;;;;;;;0.20;0.20;;;;;;;19.78;49.96;94999.03;4996795;28;96635;-67
2021/04/12 06:21:52;;;;;;;0.28;0.28;;;;;;;19.77;50.21;95002.94;4996767;28;96808;-67
2021/04/12 06:24:29;;;;;;;0.20;0.20;;;;;;;19.76;50.03;94993.16;4994907;28;99559;-66
2021/04/12 06:27:24;;;;;;;0.30;0.30;;;;;;;19.80;49.88;94988.47;4994889;28;99508;-66
2021/04/12 06:30:01;;;;;;;0.20;0.20;;;;;;;19.80;49.72;95004.91;4985969;28;96960;-65
2021/04/12 06:33:05;;;;;;;0.20;0.20;;;;;;;19.80;49.96;95010.41;4996476;28;96892;-64
2021/04/12 06:35:43;;;;;;;0.20;0.20;;;;;;;19.82;49.83;95013.53;4973600;28;99746;-67
2021/04/12 06:38:46;;;;;;;0.17;0.17;;;;;;;19.81;50.00;95019.41;4995840;28;99099;-65
2021/04/12 06:41:26;;;;;;;0.20;0.20;;;;;;;19.79;50.05;95008.06;4996309;28;96708;-66
2021/04/12 06:44:30;;;;;;;0.20;0.20;;;;;;;19.79;50.19;95014.31;4996777;28;97651;-66
2021/04/12 06:47:27;;;;;;;0.20;0.20;;;;;;;19.82;49.98;95002.56;4994252;28;100117;-66
2021/04/12 06:50:10;;;;;;;0.20;0.20;;;;;;;19.84;50.12;94997.50;4995373;28;99404;-65
2021/04/12 06:52:48;;;;;;;0.20;0.20;;;;;;;19.87;49.96;94997.88;4996049;28;97190;-66
2021/04/12 06:55:18;;;;;;;0.20;0.20;;;;;;;19.88;50.17;95004.94;4995651;28;96663;-64
2021/04/12 06:58:09;;;;;;;0.30;0.30;;;;;;;19.88;49.93;95002.19;4995149;28;99407;-66
2021/04/12 07:01:01;;;;;;;0.20;0.20;;;;;;;19.86;50.16;95008.09;4993860;28;98475;-65
2021/04/12 07:04:09;;;;;;;0.30;0.30;;;;;;;19.83;50.28;94998.66;4994797;28;97002;-65
2021/04/12 07:06:43;;;;;;;0.30;0.30;;;;;;;19.83;50.15;95004.13;4994722;28;96877;-65
2021/04/12 07:09:34;;;;;;;0.20;0.20;;;;;;;19.82;50.52;94996.31;4995173;28;99611;-65
2021/04/12 07:12:14;;;;;;;0.30;0.30;;;;;;;19.83;50.48;95001.41;4994325;28;99441;-65
2021/04/12 07:14:58;;;;;;;0.20;0.20;;;;;;;19.88;50.50;94999.47;4995939;28;96716;-65
2021/04/12 07:17:42;;;;;;;0.20;0.20;;;;;;;19.88;50.51;94996.72;4996091;28;96768;-65
2021/04/12 07:20:11;;;;;;;0.20;0.20;;;;;;;19.87;50.42;95009.66;4995096;28;99593;-66
2021/04/12 07:22:55;;;;;;;0.20;0.20;;;;;;;19.86;50.50;95002.59;4995249;28;99348;-65
2021/04/12 07:25:58;;;;;;;0.10;0.10;;;;;;;19.90;50.62;95002.63;4993977;28;96751;-65
2021/04/12 07:28:57;;;;;;;0.20;0.20;;;;;;;19.84;50.72;95000.22;4995464;28;96921;-63
2021/04/12 07:31:44;;;;;;;0.30;0.30;;;;;;;19.87;50.67;95000.63;4994924;28;99451;-63
2021/04/12 07:34:32;;;;;;;0.20;0.20;;;;;;;19.83;50.76;95001.41;4994844;28;99765;-69
2021/04/12 07:37:18;;;;;;;0.20;0.20;;;;;;;19.84;50.67;95002.97;4994815;28;97051;-69
2021/04/12 07:40:21;;;;;;;0.25;0.25;;;;;;;19.87;50.67;94997.88;4994403;28;97022;-67
2021/04/12 07:43:09;;;;;;;0.20;0.20;;;;;;;19.88;50.48;94991.22;4994925;28;99420;-67
2021/04/12 07:46:30;;;;;;;0.20;0.20;;;;;;;19.88;50.58;94989.28;4994052;28;99215;-68
2021/04/12 07:49:28;;;;;;;0.20;0.20;;;;;;;19.87;50.64;94978.69;4994952;28;96879;-66
2021/04/12 07:52:02;;;;;;;0.22;0.22;;;;;;;19.91;50.48;94982.28;4995396;28;96757;-66
2021/04/12 07:54:28;;;;;;;0.20;0.20;;;;;;;19.90;50.55;94977.97;4994341;28;99379;-66
2021/04/12 07:57:24;;;;;;;0.20;0.20;;;;;;;19.94;50.53;94973.28;4994942;28;99388;-67
2021/04/12 08:00:08;;;;;;;0.20;0.20;;;;;;;19.92;50.42;94968.19;4994290;28;96813;-66
2021/04/12 08:03:14;;;;;;;0.20;0.20;;;;;;;19.92;50.52;94970.94;4995153;28;96825;-67
2021/04/12 08:05:58;;;;;;;0.20;0.20;;;;;;;19.87;50.72;94970.47;4960780;28;99865;-67
2021/04/12 08:08:55;;;;;;;0.10;0.10;;;;;;;19.89;50.65;94968.16;4994690;28;99288;-67
2021/04/12 08:11:43;;;;;;;0.30;0.30;;;;;;;19.87;50.73;94959.50;4995760;28;96881;-67
2021/04/12 08:14:33;;;;;;;0.20;0.20;;;;;;;19.90;50.59;94959.56;4998962;28;96966;-67
2021/04/12 08:17:11;;;;;;;0.20;0.20;;;;;;;19.84;50.68;94961.84;4997997;28;99887;-67
2021/04/12 08:19:48;;;;;;;0.20;0.20;;;;;;;19.83;50.71;94960.28;4996918;28;99341;-67
2021/04/12 08:22:52;;;;;;;0.30;0.30;;;;;;;19.87;50.80;94956.78;4997975;28;96606;-67
2021/04/12 08:25:55;;;;;;;0.20;0.20;;;;;;;19.88;50.62;94950.13;4996467;28;96955;-67
2021/04/12 08:28:59;;;;;;;0.20;0.20;;;;;;;19.89;50.49;94948.97;4997926;28;99382;-66
2021/04/12 08:31:46;;;;;;;0.30;0.30;;;;;;;19.88;50.54;94944.63;4997829;28;99316;-65
2021/04/12 08:34:45;;;;;;;0.20;0.20;;;;;;;19.88;50.62;94939.16;4998273;28;96754;-64
2021/04/12 08:37:42;;;;;;;0.30;0.30;;;;;;;19.88;50.41;94939.16;4998180;28;96857;-65
2021/04/12 08:40:33;;;;;;;0.20;0.20;;;;;;;19.87;50.49;94937.59;4996576;28;99373;-65
2021/04/12 08:43:01;;;;;;;0.20;0.20;;;;;;;19.89;50.62;94932.53;4998081;28;99202;-65
2021/04/12 08:45:35;;;;;;;0.30;0.30;;;;;;;19.90;50.53;94936.84;4998021;28;96697;-66
2021/04/12 08:48:35;;;;;;;0.20;0.20;;;;;;;19.93;50.54;94936.06;4997898;28;96806;-66
2021/04/12 08:51:06;;;;;;;0.20;0.20;;;;;;;19.92;50.42;94934.50;4996811;28;99055;-65
2021/04/12 08:54:09;;;;;;;0.30;0.30;;;;;;;19.92;50.52;94926.28;4997422;28;99516;-66
2021/04/12 08:56:43;;;;;;;0.22;0.22;;;;;;;19.90;50.54;94931.34;4997983;28;96665;-66
2021/04/12 08:59:30;;;;;;;0.20;0.20;;;;;;;19.91;50.63;94932.94;4997958;28;96887;-66
2021/04/12 09:02:26;;;;;;;0.30;0.30;;;;;;;19.88;50.67;94917.22;4997366;28;100116;-64
2021/04/12 09:05:07;;;;;;;0.20;0.20;;;;;;;19.89;50.85;94913.34;4997638;28;99298;-67
2021/04/12 09:07:54;;;;;;;0.20;0.20;;;;;;;19.91;50.85;94908.25;4996581;28;96831;-67
2021/04/12 09:10:38;;;;;;;0.30;0.30;;;;;;;19.97;50.70;94903.97;4998053;28;97020;-65
2021/04/12 09:13:42;;;;;;;0.30;0.30;;;;;;;19.96;50.60;94907.88;4997135;28;99793;-66
2021/04/12 09:16:38;;;;;;;0.30;0.30;;;;;;;19.96;50.59;94896.91;4980980;28;99597;-65
2021/04/12 09:19:15;;;;;;;0.25;0.25;;;;;;;19.99;50.72;94890.66;4975037;28;96864;-65
2021/04/12 09:22:08;;;;;;;0.22;0.22;;;;;;;20.00;50.70;94897.69;4997516;28;96781;-65
2021/04/12 09:24:36;;;;;;;0.20;0.20;;;;;;;20.00;50.71;94884.00;4997019;28;99762;-66
2021/04/12 09:27:39;;;;;;;0.20;0.20;;;;;;;20.04;50.66;94897.69;4997059;28;98846;-65
2021/04/12 09:30:29;;;;;;;0.20;0.20;;;;;;;19.97;50.84;94890.25;4997350;28;96635;-64
2021/04/12 09:33:00;;;;;;;0.20;0.20;;;;;;;20.00;50.75;94881.25;4997641;28;96781;-65
2021/04/12 09:35:47;;;;;;;0.20;0.20;;;;;;;19.99;50.80;94877.75;4996996;28;99584;-68
2021/04/12 09:38:43;;;;;;;0.15;0.15;;;;;;;20.01;50.88;94877.34;4997068;28;99049;-68
2021/04/12 09:41:31;;;;;;;0.20;0.20;;;;;;;19.98;50.91;94867.16;4997187;28;96664;-69
2021/04/12 09:44:03;;;;;;;0.20;0.20;;;;;;;20.06;50.67;94870.66;4995926;28;97002;-70
2021/04/12 09:46:37;;;;;;;0.20;0.20;;;;;;;19.92;51.26;94874.97;4996290;28;99712;-69
2021/04/12 09:49:34;;;;;;;0.32;0.20;;;;;;;19.96;51.05;94866.75;4995288;28;99287;-69
2021/04/12 09:52:30;;;;;;;0.75;0.20;;;;;;;20.04;51.06;94860.09;4997003;28;96792;-70
2021/04/12 09:55:31;;;;;;;0.20;0.20;;;;;;;20.02;51.23;94859.72;4997032;28;97103;-69
2021/04/12 09:58:02;;;;;;;0.20;0.20;;;;;;;20.03;51.21;94855.78;4987324;28;97445;-69
2021/04/12 10:01:21;;;;;;;0.20;0.20;;;;;;;20.01;51.41;94849.16;4995248;28;99757;-67
2021/04/12 10:04:31;;;;;;;0.20;0.20;;;;;;;19.99;51.17;94849.53;4955100;28;97053;-68
2021/04/12 10:07:18;;;;;;;0.20;0.20;;;;;;;19.95;51.36;94846.78;4959012;28;97087;-69
2021/04/12 10:10:06;;;;;;;0.20;0.20;;;;;;;19.99;51.58;94846.78;4996310;28;99502;-69
2021/04/12 10:12:56;;;;;;;0.20;0.20;;;;;;;19.98;51.61;94847.97;4980383;28;99127;-69
2021/04/12 10:15:27;;;;;;;0.20;0.20;;;;;;;20.03;51.65;94844.03;4994561;28;97603;-69
2021/04/12 10:18:07;;;;;;;0.20;0.20;;;;;;;20.05;51.55;94834.25;4995590;28;96866;-68
2021/04/12 10:20:35;;;;;;;0.10;0.10;;;;;;;19.99;51.91;94824.84;4995212;28;98782;-68
2021/04/12 10:23:02;;;;;;;0.25;0.25;;;;;;;20.03;51.44;94828.38;4978722;28;99353;-68
2021/04/12 10:25:47;;;;;;;0.20;0.20;;;;;;;20.08;51.49;94827.19;4995426;28;96737;-68
2021/04/12 10:28:30;;;;;;;0.20;0.20;;;;;;;20.07;51.44;94828.38;4996636;28;96877;-68
2021/04/12 10:31:11;;;;;;;0.20;0.20;;;;;;;20.10;51.53;94820.16;4996106;28;99362;-68
2021/04/12 10:33:53;;;;;;;0.10;0.10;;;;;;;20.13;51.18;94824.88;4996048;28;99444;-68
2021/04/12 10:36:31;;;;;;;0.20;0.20;;;;;;;20.10;51.39;94814.69;4979160;28;96800;-68
2021/04/12 10:39:02;;;;;;;0.10;0.10;;;;;;;20.13;51.34;94811.16;4979318;28;97262;-67
2021/04/12 10:41:40;;;;;;;0.20;0.20;;;;;;;20.16;51.47;94811.53;4978012;28;99743;-68
2021/04/12 10:44:13;;;;;;;0.20;0.20;;;;;;;20.10;51.38;94811.94;4978255;28;99167;-68
2021/04/12 10:47:05;;;;;;;0.10;0.10;;;;;;;20.07;51.46;94817.41;4994850;28;96826;-68
2021/04/12 10:50:04;;;;;;;0.25;0.25;;;;;;;20.08;51.64;94810.75;4993583;28;96969;-66
2021/04/12 10:53:01;;;;;;;3.45;2.65;;;;;;;20.00;49.64;94809.97;4995737;28;99469;-63
2021/04/12 10:55:43;;;;;;;4.47;4.05;;;;;;;19.97;45.97;94800.59;4965744;28;99158;-62
2021/04/12 10:58:11;;;;;;;3.67;3.38;;;;;;;19.98;45.62;94801.34;4978500;28;96783;-62
2021/04/12 11:00:49;;;;;;;4.03;3.60;;;;;;;20.00;45.45;94799.00;4996266;28;96916;-63
2021/04/12 11:03:24;;;;;;;2.67;2.47;;;;;;;20.03;46.62;94795.47;4995045;28;99331;-62
2021/04/12 11:06:21;;;;;;;2.60;2.40;;;;;;;20.06;46.30;94791.97;4995226;28;99312;-62
2021/04/12 11:09:11;;;;;;;3.22;2.92;;;;;;;20.03;45.58;94781.78;4958594;28;96963;-64
2021/04/12 11:11:47;;;;;;;2.90;2.70;;;;;;;20.04;45.78;94777.84;4995494;28;96952;-60
2021/04/12 11:14:21;;;;;;;3.33;2.60;;;;;;;20.11;44.97;94777.84;4994036;28;99604;-65
2021/04/12 11:16:52;;;;;;;1.63;1.52;;;;;;;20.13;46.23;94775.50;4995142;28;99882;-65
2021/04/12 11:19:51;;;;;;;2.00;1.80;;;;;;;20.18;46.33;94770.78;4994133;28;96830;-64
2021/04/12 11:22:30;;;;;;;2.55;1.90;;;;;;;20.20;46.50;94761.00;4960779;28;96996;-63
2021/04/12 11:25:05;;;;;;;2.50;1.92;;;;;;;20.24;46.33;94759.03;4978091;28;99735;-65
2021/04/12 11:27:55;;;;;;;2.25;2.05;;;;;;;20.29;46.35;94755.13;4995340;28;99168;-64
2021/04/12 11:31:02;;;;;;;2.10;1.90;;;;;;;20.32;46.32;94748.81;4995095;28;96877;-62
2021/04/12 11:33:47;;;;;;;3.40;2.17;;;;;;;20.34;46.38;94745.69;4981231;28;96992;-62
2021/04/12 11:36:26;;;;;;;2.53;2.00;;;;;;;20.37;46.25;94756.63;4991719;28;99307;-67
2021/04/12 11:39:04;;;;;;;2.30;2.10;;;;;;;20.38;46.20;94735.50;4976096;28;98986;-66
2021/04/12 11:41:52;;;;;;;2.90;2.20;;;;;;;20.39;46.19;94740.56;4975441;28;96874;-62
2021/04/12 11:44:29;;;;;;;2.58;2.05;;;;;;;20.38;46.07;94730.78;4991766;28;97196;-62
2021/04/12 11:46:57;;;;;;;2.25;2.05;;;;;;;20.41;46.12;94734.69;4975999;28;99793;-66
2021/04/12 11:49:51;;;;;;;2.25;2.05;;;;;;;20.42;46.03;94737.03;4991010;28;99084;-66
2021/04/12 11:52:33;;;;;;;2.42;2.08;;;;;;;20.41;46.17;94735.47;4990988;28;96917;-63
2021/04/12 11:55:13;;;;;;;3.05;2.28;;;;;;;20.39;46.13;94737.81;4978905;28;96693;-62
2021/04/12 11:58:02;;;;;;;2.28;2.08;;;;;;;20.40;46.11;94728.41;4993562;28;99954;-66
2021/04/12 12:00:38;;;;;;;2.63;2.00;;;;;;;20.40;46.12;94720.19;4977665;28;99369;-64
2021/04/12 12:03:12;;;;;;;2.35;2.00;;;;;;;20.35;46.09;94715.09;4993786;28;96660;-63
2021/04/12 12:06:00;;;;;;;2.35;2.15;;;;;;;20.37;45.99;94720.97;4978132;28;96817;-64
2021/04/12 12:08:42;;;;;;;2.17;1.95;;;;;;;20.36;46.03;94716.66;4994634;28;99055;-63
2021/04/12 12:11:15;;;;;;;2.30;2.10;;;;;;;20.34;45.83;94710.78;4993407;28;98868;-65
2021/04/12 12:13:50;;;;;;;3.05;2.60;;;;;;;20.34;46.00;94702.56;4978237;28;96739;-63
2021/04/12 12:16:28;;;;;;;2.47;2.28;;;;;;;20.34;45.97;94702.56;4994949;28;96999;-62
2021/04/12 12:18:57;;;;;;;2.90;2.60;;;;;;;20.34;45.86;94694.34;4993251;28;99618;-62
2021/04/12 12:21:50;;;;;;;2.53;2.33;;;;;;;20.36;45.86;94694.72;4994753;28;99761;-62
2021/04/12 12:24:30;;;;;;;2.75;2.17;;;;;;;20.34;45.82;94691.59;4990919;28;97208;-63
2021/04/12 12:27:31;;;;;;;2.42;2.13;;;;;;;20.33;45.67;94683.78;4993621;28;96812;-63
2021/04/12 12:30:25;;;;;;;2.47;2.28;;;;;;;20.32;45.76;94688.47;4993955;28;99592;-65
2021/04/12 12:32:58;;;;;;;2.55;2.30;;;;;;;20.32;45.70;94676.72;4989100;28;99495;-67
2021/04/12 12:35:37;;;;;;;2.65;2.45;;;;;;;20.33;45.69;94684.53;4993501;28;97149;-65
2021/04/12 12:38:27;;;;;;;4.22;2.50;;;;;;;20.32;45.61;94666.53;4994671;28;96910;-63
2021/04/12 12:41:01;;;;;;;3.30;2.65;;;;;;;20.33;45.67;94667.31;4993066;28;99418;-62
2021/04/12 12:43:32;;;;;;;3.40;2.80;;;;;;;20.33;45.39;94657.13;4992936;28;99228;-63
2021/04/12 12:46:05;;;;;;;2.87;2.57;;;;;;;20.38;45.40;94651.22;4976852;28;96991;-63
2021/04/12 12:48:31;;;;;;;3.85;2.28;;;;;;;20.42;45.43;94659.47;4993626;28;96880;-63
2021/04/12 12:51:09;;;;;;;2.72;2.50;;;;;;;20.44;45.29;94652.38;4975933;28;98559;-63
2021/04/12 12:53:37;;;;;;;2.50;2.30;;;;;;;20.45;45.06;94647.69;4993441;28;99844;-63
2021/04/12 12:56:15;;;;;;;2.58;2.38;;;;;;;20.44;45.09;94641.41;4976653;28;96767;-67
2021/04/12 12:58:51;;;;;;;3.63;2.58;;;;;;;20.46;45.07;94642.97;4995913;28;96846;-64